createdAt,value
2018-11-07T00:01:07.453Z,10.80
2018-11-07T00:03:35.965Z,10.80
2018-11-07T00:06:04.669Z,10.80
2018-11-07T00:08:33.228Z,10.80
2018-11-07T00:11:01.738Z,10.70
2018-11-07T00:13:30.253Z,10.70
2018-11-07T00:15:58.785Z,10.70
2018-11-07T00:18:27.285Z,10.70
2018-11-07T00:20:55.893Z,10.70
2018-11-07T00:23:24.397Z,10.70
2018-11-07T00:25:52.885Z,10.70
2018-11-07T00:28:21.440Z,10.70
2018-11-07T00:30:49.944Z,10.60
2018-11-07T00:33:18.416Z,10.60
2018-11-07T00:35:46.995Z,10.60
2018-11-07T00:38:15.485Z,10.60
2018-11-07T00:40:43.988Z,10.50
2018-11-07T00:43:12.500Z,10.50
2018-11-07T00:45:40.980Z,10.50
2018-11-07T00:48:09.480Z,10.50
2018-11-07T00:50:37.965Z,10.50
2018-11-07T00:53:06.504Z,10.40
2018-11-07T00:55:34.992Z,10.40
2018-11-07T00:58:03.548Z,10.40
2018-11-07T01:00:32.032Z,10.40
2018-11-07T01:03:00.536Z,10.30
2018-11-07T01:05:29.016Z,10.30
2018-11-07T01:07:57.512Z,10.30
2018-11-07T01:10:25.992Z,10.30
2018-11-07T01:12:54.499Z,10.30
2018-11-07T01:15:23.015Z,10.20
2018-11-07T01:17:51.492Z,10.20
2018-11-07T01:20:19.995Z,10.20
2018-11-07T01:22:48.467Z,10.20
2018-11-07T01:25:16.964Z,10.20
2018-11-07T01:27:45.485Z,10.20
2018-11-07T01:30:14.628Z,10.10
2018-11-07T01:32:43.188Z,10.10
2018-11-07T01:35:11.713Z,10.10
2018-11-07T01:37:40.243Z,10.00
2018-11-07T01:40:11.789Z,10.00
2018-11-07T01:42:40.308Z,10.00
2018-11-07T01:45:09.851Z,9.90
2018-11-07T01:47:38.396Z,9.90
2018-11-07T01:50:08.531Z,9.90
2018-11-07T01:52:37.003Z,9.80
2018-11-07T01:55:06.127Z,9.80
2018-11-07T01:57:34.847Z,9.80
2018-11-07T02:00:03.471Z,9.80
2018-11-07T02:02:31.960Z,9.70
2018-11-07T02:05:00.467Z,9.70
2018-11-07T02:07:28.966Z,9.70
2018-11-07T02:09:57.550Z,9.70
2018-11-07T02:12:26.039Z,9.70
2018-11-07T02:14:54.538Z,9.60
2018-11-07T02:17:23.019Z,9.60
2018-11-07T02:19:52.439Z,9.60
2018-11-07T02:22:20.922Z,9.60
2018-11-07T02:24:49.435Z,9.50
2018-11-07T02:27:17.967Z,9.50
2018-11-07T02:29:46.456Z,9.50
2018-11-07T02:32:14.953Z,9.50
2018-11-07T02:34:43.455Z,9.50
2018-11-07T02:37:12.012Z,9.40
2018-11-07T02:39:40.511Z,9.40
2018-11-07T02:42:09.020Z,9.40
2018-11-07T02:44:37.530Z,9.40
2018-11-07T02:47:06.107Z,9.30
2018-11-07T02:49:34.605Z,9.30
2018-11-07T02:52:03.138Z,9.30
2018-11-07T02:54:31.638Z,9.30
2018-11-07T02:57:00.178Z,9.30
2018-11-07T02:59:28.682Z,9.30
2018-11-07T03:01:57.182Z,9.30
2018-11-07T03:04:25.666Z,9.30
2018-11-07T03:06:54.170Z,9.20
2018-11-07T03:09:22.686Z,9.20
2018-11-07T03:11:51.189Z,9.20
2018-11-07T03:14:19.666Z,9.20
2018-11-07T03:16:48.162Z,9.20
2018-11-07T03:19:16.646Z,9.10
2018-11-07T03:21:45.174Z,9.10
2018-11-07T03:24:13.682Z,9.10
2018-11-07T03:26:42.177Z,9.10
2018-11-07T03:29:10.654Z,9.10
2018-11-07T03:31:39.154Z,9.10
2018-11-07T03:34:07.654Z,9.10
2018-11-07T03:36:36.138Z,9.00
2018-11-07T03:39:07.881Z,9.00
2018-11-07T03:41:36.435Z,9.00
2018-11-07T03:44:05.258Z,9.00
2018-11-07T03:46:33.789Z,8.90
2018-11-07T03:49:02.290Z,8.90
2018-11-07T03:51:30.785Z,8.90
2018-11-07T03:53:59.293Z,8.90
2018-11-07T03:56:27.817Z,8.80
2018-11-07T03:58:56.622Z,8.80
2018-11-07T04:01:25.249Z,8.80
2018-11-07T04:03:53.849Z,8.80
2018-11-07T04:06:22.733Z,8.70
2018-11-07T04:08:51.237Z,8.70
2018-11-07T04:11:19.765Z,8.70
2018-11-07T04:13:48.289Z,8.70
2018-11-07T04:16:16.793Z,8.70
2018-11-07T04:18:46.001Z,8.60
2018-11-07T04:21:14.700Z,8.60
2018-11-07T04:23:47.417Z,8.60
2018-11-07T04:26:15.941Z,8.50
2018-11-07T04:28:44.421Z,8.50
2018-11-07T04:31:12.929Z,8.50
2018-11-07T04:33:41.450Z,8.40
2018-11-07T04:36:09.969Z,8.40
2018-11-07T04:38:38.465Z,8.40
2018-11-07T04:41:06.976Z,8.40
2018-11-07T04:43:35.460Z,8.30
2018-11-07T04:46:03.944Z,8.30
2018-11-07T04:48:32.464Z,8.30
2018-11-07T04:51:00.973Z,8.30
2018-11-07T04:53:29.449Z,8.20
2018-11-07T04:55:57.960Z,8.20
2018-11-07T04:58:26.428Z,8.20
2018-11-07T05:00:54.920Z,8.20
2018-11-07T05:03:23.452Z,8.20
2018-11-07T05:05:52.193Z,8.20
2018-11-07T05:08:20.705Z,8.10
2018-11-07T05:10:49.208Z,8.10
2018-11-07T05:13:17.736Z,8.10
2018-11-07T05:15:46.244Z,8.10
2018-11-07T05:18:14.722Z,8.00
2018-11-07T05:20:43.248Z,8.10
2018-11-07T05:23:11.744Z,8.00
2018-11-07T05:25:40.240Z,8.00
2018-11-07T05:28:08.740Z,8.00
2018-11-07T05:30:37.220Z,8.00
2018-11-07T05:33:05.759Z,7.90
2018-11-07T05:35:34.276Z,7.90
2018-11-07T05:38:02.752Z,7.90
2018-11-07T05:40:31.271Z,7.90
2018-11-07T05:42:59.751Z,7.90
2018-11-07T05:45:28.220Z,7.90
2018-11-07T05:47:56.800Z,7.90
2018-11-07T05:50:25.315Z,7.80
2018-11-07T05:52:53.811Z,7.80
2018-11-07T05:55:22.303Z,7.80
2018-11-07T05:57:50.815Z,7.90
2018-11-07T06:00:19.295Z,7.80
2018-11-07T06:02:47.790Z,7.80
2018-11-07T06:05:16.295Z,7.80
2018-11-07T06:07:44.782Z,7.80
2018-11-07T06:10:13.938Z,7.80
2018-11-07T06:12:42.878Z,7.70
2018-11-07T06:15:12.144Z,7.70
2018-11-07T06:17:40.624Z,7.70
2018-11-07T06:20:10.071Z,7.70
2018-11-07T06:22:38.639Z,7.70
2018-11-07T06:25:07.231Z,7.70
2018-11-07T06:27:35.742Z,7.70
2018-11-07T06:30:04.775Z,7.70
2018-11-07T06:32:33.279Z,7.70
2018-11-07T06:35:01.731Z,7.70
2018-11-07T06:37:30.215Z,7.70
2018-11-07T06:39:58.719Z,7.80
2018-11-07T06:42:27.206Z,7.80
2018-11-07T06:44:55.814Z,7.80
2018-11-07T06:47:24.299Z,7.80
2018-11-07T06:49:52.834Z,7.80
2018-11-07T06:52:21.302Z,7.90
2018-11-07T06:54:49.814Z,7.90
2018-11-07T06:57:18.341Z,7.90
2018-11-07T06:59:46.870Z,8.00
2018-11-07T07:02:15.378Z,8.00
2018-11-07T07:04:43.866Z,8.10
2018-11-07T07:07:12.383Z,8.10
2018-11-07T07:09:40.898Z,8.20
2018-11-07T07:12:09.390Z,8.20
2018-11-07T07:14:37.886Z,8.20
2018-11-07T07:17:06.430Z,8.30
2018-11-07T07:19:34.910Z,8.30
2018-11-07T07:22:03.390Z,8.40
2018-11-07T07:24:31.898Z,8.40
2018-11-07T07:27:00.390Z,8.40
2018-11-07T07:29:28.907Z,8.40
2018-11-07T07:31:57.530Z,8.50
2018-11-07T07:34:26.018Z,8.50
2018-11-07T07:36:54.499Z,8.60
2018-11-07T07:39:22.974Z,8.60
2018-11-07T07:41:51.470Z,8.60
2018-11-07T07:44:19.966Z,8.70
2018-11-07T07:46:48.478Z,8.70
2018-11-07T07:49:17.063Z,8.70
2018-11-07T07:51:45.513Z,8.80
2018-11-07T07:54:14.027Z,8.80
2018-11-07T07:56:42.518Z,8.90
2018-11-07T07:59:11.010Z,8.90
2018-11-07T08:01:39.506Z,8.90
2018-11-07T08:04:08.046Z,9.00
2018-11-07T08:06:37.621Z,9.00
2018-11-07T08:09:10.297Z,9.00
2018-11-07T08:11:39.293Z,9.10
2018-11-07T08:14:08.512Z,9.10
2018-11-07T08:16:36.997Z,9.20
2018-11-07T08:19:05.855Z,9.20
2018-11-07T08:21:34.350Z,9.30
2018-11-07T08:24:02.855Z,9.30
2018-11-07T08:26:31.345Z,9.30
2018-11-07T08:28:59.847Z,9.40
2018-11-07T08:31:28.341Z,9.40
2018-11-07T08:33:57.005Z,9.50
2018-11-07T08:36:25.513Z,9.50
2018-11-07T08:38:54.009Z,9.60
2018-11-07T08:41:22.520Z,9.60
2018-11-07T08:43:51.001Z,9.70
2018-11-07T08:46:19.813Z,9.80
2018-11-07T08:48:48.333Z,9.80
2018-11-07T08:51:16.831Z,9.90
2018-11-07T08:57:16.777Z,10.00
2018-11-07T08:59:45.244Z,10.10
2018-11-07T09:02:13.799Z,10.20
2018-11-07T09:04:42.244Z,10.30
2018-11-07T09:07:10.712Z,10.30
2018-11-07T09:09:39.212Z,10.40
2018-11-07T09:12:07.767Z,10.50
2018-11-07T09:14:36.256Z,10.50
2018-11-07T09:17:04.780Z,10.60
2018-11-07T09:19:33.288Z,10.70
2018-11-07T09:22:01.760Z,10.80
2018-11-07T09:24:30.339Z,10.80
2018-11-07T09:26:58.860Z,10.90
2018-11-07T09:29:27.329Z,11.00
2018-11-07T09:31:55.896Z,11.10
2018-11-07T09:34:24.402Z,11.10
2018-11-07T09:36:52.902Z,11.20
2018-11-07T09:39:21.368Z,11.30
2018-11-07T09:41:49.884Z,11.40
2018-11-07T09:44:18.374Z,11.50
2018-11-07T09:46:46.920Z,11.70
2018-11-07T09:49:15.508Z,12.00
2018-11-07T09:51:43.972Z,12.20
2018-11-07T09:54:12.554Z,12.60
2018-11-07T09:56:40.995Z,12.80
2018-11-07T09:59:09.519Z,12.90
2018-11-07T10:01:38.067Z,13.10
2018-11-07T10:04:06.574Z,13.30
2018-11-07T10:06:35.089Z,13.60
2018-11-07T10:09:04.007Z,13.70
2018-11-07T10:11:32.532Z,13.90
2018-11-07T10:14:01.083Z,14.10
2018-11-07T10:16:29.583Z,14.30
2018-11-07T10:18:58.160Z,14.40
2018-11-07T10:21:26.679Z,14.50
2018-11-07T10:23:55.782Z,14.60
2018-11-07T10:26:24.347Z,14.70
2018-11-07T10:28:53.099Z,14.80
2018-11-07T10:31:21.397Z,14.90
2018-11-07T10:33:49.887Z,15.00
2018-11-07T10:36:18.579Z,15.10
2018-11-07T10:38:47.181Z,15.30
2018-11-07T10:41:15.635Z,15.40
2018-11-07T10:43:44.173Z,15.50
2018-11-07T10:46:12.713Z,15.60
2018-11-07T10:48:41.215Z,15.80
2018-11-07T10:51:09.723Z,15.80
2018-11-07T10:53:38.199Z,15.90
2018-11-07T10:56:06.951Z,16.00
2018-11-07T10:58:35.707Z,16.20
2018-11-07T11:01:09.434Z,16.30
2018-11-07T11:03:37.922Z,16.30
2018-11-07T11:06:06.531Z,16.30
2018-11-07T11:08:35.422Z,16.40
2018-11-07T11:11:04.668Z,16.50
2018-11-07T11:13:33.194Z,16.60
2018-11-07T11:16:01.674Z,16.70
2018-11-07T11:18:30.402Z,16.80
2018-11-07T11:20:59.158Z,16.90
2018-11-07T11:23:27.658Z,16.80
2018-11-07T11:25:56.234Z,16.80
2018-11-07T11:28:25.062Z,16.80
2018-11-07T11:30:53.581Z,16.90
2018-11-07T11:33:22.114Z,17.00
2018-11-07T11:35:50.638Z,17.00
2018-11-07T11:38:19.457Z,17.10
2018-11-07T11:40:47.976Z,17.30
2018-11-07T11:43:16.486Z,17.40
2018-11-07T11:45:44.990Z,17.50
2018-11-07T11:48:13.490Z,17.50
2018-11-07T11:50:41.999Z,17.40
2018-11-07T11:53:10.485Z,17.40
2018-11-07T11:55:38.997Z,17.40
2018-11-07T11:58:07.513Z,17.30
2018-11-07T12:00:36.006Z,17.40
2018-11-07T12:03:04.577Z,17.50
2018-11-07T12:05:33.113Z,17.70
2018-11-07T12:08:01.657Z,17.60
2018-11-07T12:10:30.169Z,17.60
2018-11-07T12:12:58.748Z,17.60
2018-11-07T12:15:28.095Z,17.70
2018-11-07T12:17:56.850Z,17.70
2018-11-07T12:20:25.369Z,17.70
2018-11-07T12:22:53.868Z,17.70
2018-11-07T12:25:22.741Z,17.90
2018-11-07T12:27:51.249Z,17.80
2018-11-07T12:30:21.025Z,17.80
2018-11-07T12:32:50.641Z,17.80
2018-11-07T12:35:19.645Z,17.70
2018-11-07T12:37:48.269Z,17.60
2018-11-07T12:40:17.332Z,17.80
2018-11-07T12:42:45.925Z,17.90
2018-11-07T12:45:15.449Z,17.80
2018-11-07T12:47:43.949Z,17.60
2018-11-07T12:50:14.740Z,17.50
2018-11-07T12:52:43.944Z,17.40
2018-11-07T12:55:12.980Z,17.50
2018-11-07T12:57:41.511Z,17.50
2018-11-07T13:00:20.560Z,17.50
2018-11-07T13:02:49.125Z,17.50
2018-11-07T13:05:18.589Z,17.50
2018-11-07T13:07:47.960Z,17.50
2018-11-07T13:10:17.614Z,17.50
2018-11-07T13:12:46.568Z,17.40
2018-11-07T13:15:15.684Z,17.40
2018-11-07T13:17:44.686Z,17.40
2018-11-07T13:20:15.520Z,17.30
2018-11-07T13:22:45.025Z,17.30
2018-11-07T13:25:14.128Z,17.30
2018-11-07T13:27:42.632Z,17.20
2018-11-07T13:30:13.464Z,17.20
2018-11-07T13:32:42.048Z,17.10
2018-11-07T13:35:11.460Z,17.10
2018-11-07T13:37:40.823Z,16.90
2018-11-07T13:40:11.992Z,17.00
2018-11-07T13:42:40.524Z,16.90
2018-11-07T13:45:11.156Z,16.80
2018-11-07T13:47:40.536Z,16.90
2018-11-07T13:50:09.631Z,16.90
2018-11-07T13:52:38.161Z,16.80
2018-11-07T13:55:08.004Z,16.90
2018-11-07T13:57:36.504Z,16.80
2018-11-07T14:00:07.952Z,16.70
2018-11-07T14:02:36.480Z,16.70
2018-11-07T14:05:06.209Z,16.70
2018-11-07T14:07:34.768Z,16.70
2018-11-07T14:10:03.564Z,16.80
2018-11-07T14:12:32.148Z,16.70
2018-11-07T14:15:00.651Z,16.70
2018-11-07T14:17:29.128Z,16.70
2018-11-07T14:19:57.707Z,16.70
2018-11-07T14:22:26.211Z,16.70
2018-11-07T14:24:54.720Z,16.70
2018-11-07T14:27:23.270Z,16.60
2018-11-07T14:29:52.035Z,16.60
2018-11-07T14:32:20.815Z,16.50
2018-11-07T14:34:49.335Z,16.30
2018-11-07T14:37:17.867Z,16.20
2018-11-07T14:39:46.399Z,16.00
2018-11-07T14:42:14.892Z,15.90
2018-11-07T14:44:43.400Z,15.90
2018-11-07T14:47:11.953Z,15.80
2018-11-07T14:49:40.469Z,15.70
2018-11-07T14:52:08.979Z,15.60
2018-11-07T14:54:37.447Z,15.50
2018-11-07T14:57:05.971Z,15.40
2018-11-07T14:59:34.724Z,15.30
2018-11-07T15:02:03.419Z,15.30
2018-11-07T15:04:46.344Z,15.20
2018-11-07T15:07:14.839Z,15.10
2018-11-07T15:09:43.335Z,15.00
2018-11-07T15:12:11.860Z,14.90
2018-11-07T15:14:40.391Z,14.90
2018-11-07T15:17:08.997Z,14.80
2018-11-07T15:19:37.695Z,14.70
2018-11-07T15:22:06.326Z,14.70
2018-11-07T15:24:34.855Z,14.60
2018-11-07T15:27:03.363Z,14.50
2018-11-07T15:29:31.899Z,14.50
2018-11-07T15:32:00.382Z,14.40
2018-11-07T15:34:28.870Z,14.30
2018-11-07T15:36:57.435Z,14.20
2018-11-07T15:39:25.937Z,14.20
2018-11-07T15:41:54.450Z,14.10
2018-11-07T15:44:22.943Z,14.10
2018-11-07T15:46:51.435Z,14.00
2018-11-07T15:49:20.054Z,14.00
2018-11-07T15:51:52.873Z,13.90
2018-11-07T15:54:21.310Z,13.80
2018-11-07T15:56:49.814Z,13.80
2018-11-07T15:59:18.329Z,13.70
2018-11-07T16:01:46.830Z,13.60
2018-11-07T16:04:15.342Z,13.60
2018-11-07T16:06:43.886Z,13.50
2018-11-07T16:09:12.485Z,13.40
2018-11-07T16:11:40.998Z,13.40
2018-11-07T16:14:09.486Z,13.30
2018-11-07T16:16:37.993Z,13.30
2018-11-07T16:19:06.486Z,13.20
2018-11-07T16:21:34.977Z,13.10
2018-11-07T16:24:03.644Z,13.10
2018-11-07T16:26:32.161Z,13.00
2018-11-07T16:29:00.681Z,13.00
2018-11-07T16:31:29.247Z,12.90
2018-11-07T16:33:57.777Z,12.90
2018-11-07T16:36:26.260Z,12.80
2018-11-07T16:38:54.753Z,12.70
2018-11-07T16:41:23.691Z,12.70
2018-11-07T16:43:52.005Z,12.60
2018-11-07T16:46:20.503Z,12.50
2018-11-07T16:48:49.201Z,12.50
2018-11-07T16:51:17.721Z,12.40
2018-11-07T16:53:46.196Z,12.40
2018-11-07T16:56:14.697Z,12.40
2018-11-07T16:58:43.404Z,12.30
2018-11-07T17:01:11.905Z,12.30
2018-11-07T17:03:40.400Z,12.20
2018-11-07T17:06:09.032Z,12.20
2018-11-07T17:08:37.532Z,12.10
2018-11-07T17:11:06.261Z,12.10
2018-11-07T17:13:34.808Z,12.10
2018-11-07T17:16:03.316Z,12.00
2018-11-07T17:18:31.872Z,12.00
2018-11-07T17:21:00.376Z,11.90
2018-11-07T17:23:28.972Z,11.90
2018-11-07T17:25:57.508Z,11.90
2018-11-07T17:28:25.984Z,11.80
2018-11-07T17:30:54.476Z,11.80
2018-11-07T17:33:22.956Z,11.80
2018-11-07T17:35:51.431Z,11.70
2018-11-07T17:38:19.978Z,11.70
2018-11-07T17:40:48.559Z,11.70
2018-11-07T17:43:17.065Z,11.70
2018-11-07T17:45:45.544Z,11.60
2018-11-07T17:48:16.122Z,11.60
2018-11-07T17:50:44.503Z,11.60
2018-11-07T17:53:13.016Z,11.50
2018-11-07T17:55:41.501Z,11.50
2018-11-07T17:58:10.040Z,11.50
2018-11-07T18:00:38.538Z,11.50
2018-11-07T18:03:07.058Z,11.50
2018-11-07T18:05:35.559Z,11.40
2018-11-07T18:08:04.107Z,11.40
2018-11-07T18:10:32.631Z,11.30
2018-11-07T18:13:01.151Z,11.30
2018-11-07T18:15:29.657Z,11.30
2018-11-07T18:17:58.159Z,11.20
2018-11-07T18:20:26.666Z,11.20
2018-11-07T18:22:55.187Z,11.20
2018-11-07T18:25:23.671Z,11.10
2018-11-07T18:27:52.151Z,11.10
2018-11-07T18:30:20.635Z,11.10
2018-11-07T18:32:49.155Z,11.00
2018-11-07T18:35:18.867Z,11.00
2018-11-07T18:37:47.606Z,11.00
2018-11-07T18:40:17.504Z,11.00
2018-11-07T18:42:46.032Z,11.00
2018-11-07T18:45:14.994Z,10.90
2018-11-07T18:47:44.826Z,10.90
2018-11-07T18:50:15.961Z,10.80
2018-11-07T18:52:44.642Z,10.80
2018-11-07T18:55:14.358Z,10.80
2018-11-07T18:57:43.462Z,10.80
2018-11-07T19:00:13.878Z,10.70
2018-11-07T19:02:42.898Z,10.70
2018-11-07T19:05:11.782Z,10.60
2018-11-07T19:07:40.322Z,10.60
2018-11-07T19:10:14.530Z,10.60
2018-11-07T19:12:43.356Z,10.50
2018-11-07T19:15:13.086Z,10.60
2018-11-07T19:17:42.617Z,10.50
2018-11-07T19:20:12.317Z,10.50
2018-11-07T19:22:40.917Z,10.50
2018-11-07T19:25:11.746Z,10.40
2018-11-07T19:27:40.238Z,10.40
2018-11-07T19:30:11.073Z,10.40
2018-11-07T19:32:39.573Z,10.40
2018-11-07T19:35:09.622Z,10.30
2018-11-07T19:37:38.234Z,10.30
2018-11-07T19:40:08.207Z,10.30
2018-11-07T19:42:36.717Z,10.20
2018-11-07T19:45:06.945Z,10.20
2018-11-07T19:47:35.789Z,10.20
2018-11-07T19:50:04.319Z,10.10
2018-11-07T19:52:32.840Z,10.10
2018-11-07T19:55:01.402Z,10.10
2018-11-07T19:57:30.170Z,10.10
2018-11-07T19:59:58.685Z,10.10
2018-11-07T20:02:27.177Z,10.00
2018-11-07T20:04:55.690Z,10.00
2018-11-07T20:07:24.296Z,9.90
2018-11-07T20:09:52.778Z,9.90
2018-11-07T20:12:21.951Z,9.90
2018-11-07T20:14:51.668Z,9.90
2018-11-07T20:17:20.151Z,9.90
2018-11-07T20:19:48.660Z,9.80
2018-11-07T20:22:17.143Z,9.80
2018-11-07T20:24:45.644Z,9.80
2018-11-07T20:27:14.783Z,9.80
2018-11-07T20:29:43.293Z,9.80
2018-11-07T20:32:11.804Z,9.80
2018-11-07T20:34:40.315Z,9.80
2018-11-07T20:37:08.827Z,9.70
2018-11-07T20:39:37.315Z,9.70
2018-11-07T20:42:05.924Z,9.70
2018-11-07T20:44:34.419Z,9.70
2018-11-07T20:47:02.924Z,9.70
2018-11-07T20:49:31.411Z,9.70
2018-11-07T20:51:59.919Z,9.60
2018-11-07T20:54:28.409Z,9.70
2018-11-07T20:56:56.972Z,9.60
2018-11-07T20:59:25.500Z,9.60
2018-11-07T21:01:54.005Z,9.60
2018-11-07T21:04:22.484Z,9.60
2018-11-07T21:06:50.996Z,9.50
2018-11-07T21:09:19.485Z,9.50
2018-11-07T21:11:48.004Z,9.50
2018-11-07T21:14:16.476Z,9.40
2018-11-07T21:16:45.061Z,9.40
2018-11-07T21:19:13.927Z,9.40
2018-11-07T21:21:42.448Z,9.40
2018-11-07T21:24:10.941Z,9.40
2018-11-07T21:26:39.540Z,9.30
2018-11-07T21:29:08.009Z,9.30
2018-11-07T21:31:36.517Z,9.30
2018-11-07T21:34:05.100Z,9.30
2018-11-07T21:36:33.580Z,9.30
2018-11-07T21:39:02.144Z,9.30
2018-11-07T21:41:30.732Z,9.30
2018-11-07T21:43:59.324Z,9.30
2018-11-07T21:46:27.768Z,9.20
2018-11-07T21:48:56.256Z,9.20
2018-11-07T21:51:24.756Z,9.10
2018-11-07T21:53:53.211Z,9.10
2018-11-07T21:56:21.687Z,9.10
2018-11-07T21:58:50.227Z,9.10
2018-11-07T22:01:18.698Z,9.00
2018-11-07T22:03:47.199Z,9.00
2018-11-07T22:06:15.719Z,9.00
2018-11-07T22:08:44.201Z,9.00
2018-11-07T22:11:12.683Z,9.00
2018-11-07T22:13:41.163Z,8.90
2018-11-07T22:16:09.663Z,8.90
2018-11-07T22:18:38.135Z,8.90
2018-11-07T22:21:06.611Z,8.90
2018-11-07T22:23:35.123Z,8.90
2018-11-07T22:26:03.619Z,8.90
2018-11-07T22:28:32.095Z,8.90
2018-11-07T22:31:00.599Z,8.90
2018-11-07T22:33:29.091Z,8.90
2018-11-07T22:35:57.807Z,8.90
2018-11-07T22:38:27.619Z,8.90
2018-11-07T22:40:56.167Z,8.80
2018-11-07T22:43:24.687Z,8.80
2018-11-07T22:45:53.223Z,8.80
2018-11-07T22:48:21.735Z,8.80
2018-11-07T22:50:50.311Z,8.80
2018-11-07T22:53:18.810Z,8.80
2018-11-07T22:55:47.307Z,8.70
2018-11-07T22:58:15.797Z,8.70
2018-11-07T23:00:49.731Z,8.60
2018-11-07T23:03:18.214Z,8.60
2018-11-07T23:05:46.696Z,8.60
2018-11-07T23:08:15.203Z,8.60
2018-11-07T23:10:43.686Z,8.60
2018-11-07T23:13:12.205Z,8.60
2018-11-07T23:15:46.279Z,8.50
2018-11-07T23:18:15.431Z,8.50
2018-11-07T23:20:43.942Z,8.50
2018-11-07T23:23:13.469Z,8.50
2018-11-07T23:25:41.975Z,8.50
2018-11-07T23:28:10.488Z,8.50
2018-11-07T23:30:38.990Z,8.50
2018-11-07T23:33:07.498Z,8.40
2018-11-07T23:35:36.159Z,8.40
2018-11-07T23:38:04.746Z,8.40
2018-11-07T23:40:33.234Z,8.40
2018-11-07T23:43:01.728Z,8.40
2018-11-07T23:45:30.230Z,8.40
2018-11-07T23:47:58.740Z,8.40
2018-11-07T23:50:27.268Z,8.30
2018-11-07T23:52:55.762Z,8.30
2018-11-07T23:55:24.661Z,8.30
2018-11-07T23:57:53.770Z,8.30
